Time;durP1;ratioP1;P1;durP2;ratioP2;P2;SDS_P1;SDS_P2;PMS_P1;PMS_P2;Temp;Humidity;BMP_temperature;BMP_pressure;BME280_temperature;BME280_humidity;BME280_pressure;Samples;Min_cycle;Max_cycle;Signal;HPM_P1;HPM_P2
2022/05/15 00:01:19;;;;;;;11.75;5.35;;;13.00;69.50;;;;;;5015118;28;20084;-69
2022/05/15 00:03:45;;;;;;;9.98;5.38;;;13.00;69.70;;;;;;5015537;28;20042;-69
2022/05/15 00:06:11;;;;;;;15.57;6.13;;;12.90;69.80;;;;;;5015056;28;20092;-69
2022/05/15 00:08:38;;;;;;;8.65;4.80;;;13.00;69.70;;;;;;5014882;28;20033;-69
2022/05/15 00:11:06;;;;;;;16.92;7.22;;;12.80;70.10;;;;;;5014929;28;20462;-69
2022/05/15 00:13:32;;;;;;;15.57;6.47;;;12.80;70.30;;;;;;5014849;28;20458;-68
2022/05/15 00:15:58;;;;;;;10.95;5.40;;;12.70;70.60;;;;;;5017660;28;20301;-68
2022/05/15 00:18:24;;;;;;;10.63;5.53;;;12.70;70.90;;;;;;4996718;28;20030;-71
2022/05/15 00:20:50;;;;;;;14.43;6.32;;;12.80;70.70;;;;;;5014744;28;20484;-69
2022/05/15 00:23:18;;;;;;;15.43;6.20;;;12.70;70.80;;;;;;5015020;28;20037;-70
2022/05/15 00:25:44;;;;;;;10.77;6.30;;;12.70;71.10;;;;;;4997295;28;20468;-70
2022/05/15 00:28:10;;;;;;;12.85;6.57;;;12.60;71.30;;;;;;5048430;22;20075;-72
2022/05/15 00:30:37;;;;;;;11.23;5.95;;;12.60;71.60;;;;;;5029730;28;20022;-71
2022/05/15 00:33:03;;;;;;;13.13;6.05;;;12.50;71.80;;;;;;5014738;28;20049;-70
2022/05/15 00:35:29;;;;;;;15.38;6.35;;;12.50;71.80;;;;;;5014715;28;20099;-71
2022/05/15 00:37:54;;;;;;;13.40;6.10;;;12.50;72.30;;;;;;5014037;28;20038;-71
2022/05/15 00:40:22;;;;;;;13.60;7.28;;;12.40;72.60;;;;;;5014961;28;20022;-69
2022/05/15 00:42:49;;;;;;;12.10;6.38;;;12.50;72.50;;;;;;5014723;28;20025;-70
2022/05/15 00:45:17;;;;;;;12.40;6.57;;;12.40;72.60;;;;;;5014199;28;20025;-70
2022/05/15 00:47:42;;;;;;;15.00;6.15;;;12.40;72.70;;;;;;4996523;28;20037;-71
2022/05/15 00:50:13;;;;;;;14.55;6.38;;;12.40;72.40;;;;;;4997910;28;20027;-71
2022/05/15 00:52:41;;;;;;;;;;;12.30;72.70;;;;;;5033635;28;20563;-71
2022/05/15 00:55:12;;;;;;;14.15;6.50;;;12.20;73.10;;;;;;5016371;28;19927;-71
2022/05/15 00:57:47;;;;;;;12.98;6.22;;;12.20;73.20;;;;;;5033770;28;20022;-71
2022/05/15 01:00:16;;;;;;;12.75;6.40;;;12.20;73.30;;;;;;5034167;28;20122;-70
2022/05/15 01:02:59;;;;;;;14.10;6.85;;;12.20;73.40;;;;;;5034165;28;20113;-70
2022/05/15 01:05:24;;;;;;;13.25;6.32;;;12.10;73.30;;;;;;5029418;28;20131;-69
2022/05/15 01:07:50;;;;;;;15.02;6.68;;;12.10;73.50;;;;;;5013802;28;20057;-69
2022/05/15 01:10:16;;;;;;;10.13;5.88;;;12.10;73.50;;;;;;5015019;28;20372;-70
2022/05/15 01:12:43;;;;;;;11.77;6.30;;;12.00;73.90;;;;;;4997708;28;20100;-71
2022/05/15 01:15:14;;;;;;;16.85;6.70;;;12.00;74.00;;;;;;5014880;28;20034;-71
2022/05/15 01:17:39;;;;;;;9.37;6.33;;;11.90;74.00;;;;;;5013765;28;20068;-72
2022/05/15 01:20:13;;;;;;;12.23;6.43;;;11.90;74.50;;;;;;5013595;28;20276;-70
2022/05/15 01:22:38;;;;;;;10.10;6.28;;;11.90;74.50;;;;;;5030216;28;20024;-69
2022/05/15 01:25:11;;;;;;;10.65;5.70;;;11.70;75.20;;;;;;5033689;28;20108;-69
2022/05/15 01:27:36;;;;;;;17.05;6.55;;;11.70;75.10;;;;;;5033114;28;20030;-69
2022/05/15 01:30:02;;;;;;;16.58;7.15;;;11.70;75.00;;;;;;5033307;28;20082;-70
2022/05/15 01:32:28;;;;;;;23.05;7.18;;;11.60;75.10;;;;;;5015780;28;20025;-70
2022/05/15 01:34:53;;;;;;;11.68;6.45;;;11.60;75.30;;;;;;5015645;28;20033;-71
2022/05/15 01:37:19;;;;;;;14.13;6.78;;;11.60;75.20;;;;;;5033228;28;20018;-70
2022/05/15 01:39:44;;;;;;;14.02;6.65;;;11.60;75.20;;;;;;5033436;28;20395;-70
2022/05/15 01:42:10;;;;;;;11.93;6.55;;;11.60;75.20;;;;;;5033207;28;20038;-71
2022/05/15 01:44:37;;;;;;;13.73;6.43;;;11.60;75.20;;;;;;5033178;28;20024;-70
2022/05/15 01:47:02;;;;;;;15.20;6.80;;;11.50;75.30;;;;;;5033123;28;20506;-70
2022/05/15 01:49:28;;;;;;;14.52;7.35;;;11.50;75.60;;;;;;5033052;28;20069;-70
2022/05/15 01:51:54;;;;;;;17.27;6.22;;;11.50;75.40;;;;;;5033142;28;20030;-70
2022/05/15 01:54:19;;;;;;;17.40;6.60;;;11.50;75.60;;;;;;5032997;28;20033;-70
2022/05/15 01:56:45;;;;;;;15.90;6.72;;;11.50;75.10;;;;;;5032826;28;20025;-70
2022/05/15 01:59:10;;;;;;;10.00;6.00;;;11.50;74.90;;;;;;5032542;28;20112;-70
2022/05/15 02:01:37;;;;;;;13.70;5.65;;;11.50;74.90;;;;;;5032353;28;20018;-71
2022/05/15 02:04:03;;;;;;;10.63;6.35;;;11.50;75.10;;;;;;5033301;28;20781;-71
2022/05/15 02:06:28;;;;;;;10.48;5.95;;;11.40;75.30;;;;;;5032888;28;20018;-70
2022/05/15 02:08:55;;;;;;;14.45;6.80;;;11.40;75.40;;;;;;5032433;28;20071;-70
2022/05/15 02:11:20;;;;;;;14.05;6.13;;;11.40;75.50;;;;;;5032798;28;20095;-70
2022/05/15 02:13:46;;;;;;;13.35;6.55;;;11.40;75.40;;;;;;5032821;28;20479;-69
2022/05/15 02:16:12;;;;;;;16.38;6.15;;;11.40;75.40;;;;;;5015135;28;20067;-70
2022/05/15 02:18:38;;;;;;;15.13;7.13;;;11.40;75.50;;;;;;5032401;28;20057;-71
2022/05/15 02:21:04;;;;;;;14.40;6.53;;;11.40;75.30;;;;;;5033119;28;20022;-70
2022/05/15 02:23:30;;;;;;;14.48;7.00;;;11.40;75.30;;;;;;5015146;28;20044;-70
2022/05/15 02:25:56;;;;;;;10.35;6.47;;;;;;;;;;5032569;28;20018;-71
2022/05/15 02:28:22;;;;;;;14.02;6.35;;;;;;;;;;5032175;28;20033;-70
2022/05/15 02:30:49;;;;;;;15.23;5.80;;;;;;;;;;5032253;28;20018;-71
2022/05/15 02:33:15;;;;;;;13.88;7.13;;;;;;;;;;5032311;28;20087;-70
2022/05/15 02:35:41;;;;;;;13.63;6.03;;;;;;;;;;5032496;28;20423;-70
2022/05/15 02:38:07;;;;;;;13.85;5.93;;;;;;;;;;5031993;28;20022;-70
2022/05/15 02:40:33;;;;;;;13.48;6.28;;;;;;;;;;5032460;28;20080;-69
2022/05/15 02:42:59;;;;;;;13.93;6.70;;;;;;;;;;5032113;28;20026;-70
2022/05/15 02:45:25;;;;;;;16.20;7.28;;;;;;;;;;5032018;28;20021;-71
2022/05/15 02:47:51;;;;;;;11.82;6.68;;;;;;;;;;5031962;28;20021;-70
2022/05/15 02:53:04;;;;;;;10.25;6.28;;;;;;;;;;5032377;28;20044;-70
2022/05/15 02:55:31;;;;;;;12.02;6.43;;;;;;;;;;5032147;28;20029;-70
2022/05/15 02:57:57;;;;;;;17.00;6.57;;;;;;;;;;5031509;28;20033;-69
2022/05/15 03:00:24;;;;;;;12.95;7.38;;;;;;;;;;5031960;28;20376;-70
2022/05/15 03:02:50;;;;;;;12.60;6.38;;;;;;;;;;5031874;28;20029;-69
2022/05/15 03:05:16;;;;;;;12.20;6.50;;;;;;;;;;5032024;28;20140;-70
2022/05/15 03:07:42;;;;;;;9.75;5.82;;;;;;;;;;5031603;28;20494;-69
2022/05/15 03:10:09;;;;;;;40.00;19.08;;;;;;;;;;5014145;28;20026;-69
2022/05/15 03:12:35;;;;;;;16.85;6.95;;;;;;;;;;5031886;28;20074;-70
2022/05/15 03:15:01;;;;;;;15.80;7.75;;;;;;;;;;5031703;28;20022;-70
2022/05/15 03:17:27;;;;;;;11.82;6.45;;;;;;;;;;5031224;28;20022;-71
2022/05/15 03:19:53;;;;;;;15.52;7.75;;;;;;;;;;5031658;28;20407;-70
2022/05/15 03:22:19;;;;;;;16.83;8.70;;;;;;;;;;5004697;28;20030;-70
2022/05/15 03:24:45;;;;;;;25.08;10.88;;;;;;;;;;5012115;28;20058;-70
2022/05/15 03:27:11;;;;;;;14.30;6.45;;;;;;;;;;5011401;28;20033;-70
2022/05/15 03:29:37;;;;;;;14.60;6.40;;;;;;;;;;4994593;28;20034;-70
2022/05/15 03:32:03;;;;;;;18.25;6.70;;;;;;;;;;5012422;28;20321;-69
2022/05/15 03:34:29;;;;;;;18.77;6.53;;;;;;;;;;5011961;28;20034;-69
2022/05/15 03:36:56;;;;;;;13.68;6.80;;;;;;;;;;5011823;28;20290;-70
2022/05/15 03:39:22;;;;;;;11.80;6.18;;;;;;;;;;5011536;28;20022;-69
2022/05/15 03:41:49;;;;;;;12.98;6.20;;;;;;;;;;5011703;28;20080;-70
2022/05/15 03:44:15;;;;;;;12.45;5.80;;;;;;;;;;5012102;28;20073;-71
2022/05/15 03:46:42;;;;;;;13.82;6.60;;;;;;;;;;5012041;28;20026;-70
2022/05/15 03:49:08;;;;;;;13.95;6.13;;;;;;;;;;5011946;28;20052;-70
2022/05/15 03:51:34;;;;;;;10.90;5.60;;;;;;;;;;5012130;28;20041;-70
2022/05/15 03:54:01;;;;;;;11.93;5.82;;;;;;;;;;5012042;28;20026;-70
2022/05/15 03:59:12;;;;;;;11.88;5.50;;;13.30;68.60;;;;;;5012268;28;20573;-71
2022/05/15 04:01:38;;;;;;;11.90;5.45;;;13.50;67.80;;;;;;5012622;28;20046;-70
2022/05/15 04:04:03;;;;;;;10.77;4.75;;;14.00;65.60;;;;;;5011906;28;20232;-71
2022/05/15 04:06:29;;;;;;;11.55;4.68;;;14.60;63.50;;;;;;4994023;28;20018;-69
2022/05/15 04:08:55;;;;;;;13.68;5.53;;;15.10;61.60;;;;;;5011346;28;20026;-70
2022/05/15 04:11:21;;;;;;;13.82;4.97;;;15.70;59.00;;;;;;5022316;28;20031;-71
2022/05/15 04:13:46;;;;;;;13.82;4.80;;;16.00;58.00;;;;;;5034771;28;20407;-70
2022/05/15 04:16:13;;;;;;;10.50;5.05;;;16.30;56.80;;;;;;5034994;28;20033;-71
2022/05/15 04:18:39;;;;;;;16.65;6.03;;;16.20;56.40;;;;;;5035330;28;20112;-71
2022/05/15 04:21:05;;;;;;;11.77;4.85;;;16.60;55.80;;;;;;5036311;28;20026;-70
2022/05/15 04:23:31;;;;;;;13.77;5.45;;;17.40;53.60;;;;;;5036720;28;20028;-70
2022/05/15 04:25:57;;;;;;;16.38;7.22;;;18.20;51.40;;;;;;5018892;28;20063;-70
2022/05/15 04:28:22;;;;;;;12.05;4.50;;;19.00;49.30;;;;;;5035947;28;20048;-70
2022/05/15 04:30:48;;;;;;;11.68;4.60;;;19.40;48.50;;;;;;5035816;28;20083;-69
2022/05/15 04:33:14;;;;;;;11.15;5.10;;;19.60;47.10;;;;;;5035010;28;20061;-70
2022/05/15 04:35:40;;;;;;;10.05;4.85;;;19.80;46.80;;;;;;5034481;28;20029;-70
2022/05/15 04:38:08;;;;;;;10.25;4.97;;;19.90;45.90;;;;;;5033872;28;20029;-70
2022/05/15 04:40:34;;;;;;;11.35;4.85;;;20.10;45.50;;;;;;5033894;28;20026;-69
2022/05/15 04:43:00;;;;;;;12.45;4.68;;;20.30;44.60;;;;;;5032938;28;20534;-70
2022/05/15 04:45:25;;;;;;;18.25;4.50;;;20.90;44.00;;;;;;5032676;28;20307;-70
2022/05/15 04:47:51;;;;;;;12.18;4.10;;;21.70;42.50;;;;;;5032047;28;20028;-70
2022/05/15 04:50:18;;;;;;;10.23;4.47;;;22.50;40.70;;;;;;5032252;28;20025;-71
2022/05/15 04:52:43;;;;;;;8.65;3.55;;;23.40;38.30;;;;;;5032486;28;20029;-69
2022/05/15 04:55:09;;;;;;;6.72;3.75;;;23.50;38.30;;;;;;5032869;28;20542;-70
2022/05/15 04:57:35;;;;;;;10.95;3.85;;;23.90;37.20;;;;;;5033685;28;20028;-69
2022/05/15 05:00:03;;;;;;;10.60;4.57;;;24.00;37.30;;;;;;5033904;28;20080;-69
2022/05/15 05:02:28;;;;;;;11.75;4.63;;;23.40;37.40;;;;;;5033898;28;20452;-69
2022/05/15 05:04:55;;;;;;;13.93;4.60;;;23.40;37.60;;;;;;5033854;28;20036;-69
2022/05/15 05:07:21;;;;;;;14.13;4.15;;;23.80;37.00;;;;;;5033805;28;20506;-69
2022/05/15 05:09:46;;;;;;;12.60;3.60;;;24.50;35.80;;;;;;5033896;28;20113;-69
2022/05/15 05:12:12;;;;;;;7.97;3.95;;;25.30;34.50;;;;;;5033687;28;20063;-71
2022/05/15 05:14:37;;;;;;;6.53;3.80;;;26.40;32.90;;;;;;5033844;28;20033;-70
2022/05/15 05:17:03;;;;;;;11.63;3.88;;;26.50;32.60;;;;;;5015910;28;20021;-72
2022/05/15 05:19:29;;;;;;;8.85;4.13;;;27.40;31.40;;;;;;5032401;28;20079;-69
2022/05/15 05:21:54;;;;;;;8.23;3.92;;;27.80;30.60;;;;;;5030054;28;20499;-71
2022/05/15 05:24:20;;;;;;;8.70;4.38;;;28.40;29.90;;;;;;5032589;28;20036;-70
2022/05/15 05:26:46;;;;;;;8.55;3.40;;;28.50;29.80;;;;;;5015596;28;20025;-71
2022/05/15 05:29:12;;;;;;;6.32;3.63;;;28.50;29.70;;;;;;5033393;28;20030;-69
2022/05/15 05:31:37;;;;;;;10.18;3.67;;;29.20;29.10;;;;;;5033490;28;20021;-70
2022/05/15 05:34:03;;;;;;;10.10;3.55;;;30.00;28.00;;;;;;5032509;28;20022;-70
2022/05/15 05:36:28;;;;;;;6.90;3.10;;;30.00;27.30;;;;;;5016858;28;20022;-70
2022/05/15 05:38:54;;;;;;;8.40;3.40;;;30.30;27.30;;;;;;5013178;28;20022;-70
2022/05/15 05:41:19;;;;;;;10.35;3.40;;;30.60;27.20;;;;;;5013623;28;20033;-70
2022/05/15 05:43:45;;;;;;;11.02;4.03;;;31.20;26.10;;;;;;5013286;28;20026;-70
2022/05/15 05:46:10;;;;;;;9.65;3.70;;;31.40;25.60;;;;;;5013426;28;20108;-70
2022/05/15 05:48:36;;;;;;;8.07;3.22;;;31.50;25.90;;;;;;5013301;28;20022;-70
2022/05/15 05:51:02;;;;;;;8.27;3.72;;;30.80;26.20;;;;;;5013332;28;20029;-70
2022/05/15 05:53:27;;;;;;;30.48;13.20;;;28.80;28.40;;;;;;5013320;28;20464;-70
2022/05/15 05:55:53;;;;;;;9.00;3.60;;;29.30;28.50;;;;;;5013675;28;20061;-71
2022/05/15 05:58:18;;;;;;;19.70;8.73;;;30.10;27.50;;;;;;5016644;28;20029;-70
2022/05/15 06:00:44;;;;;;;9.10;3.97;;;30.40;27.70;;;;;;5042255;28;20475;-70
2022/05/15 06:05:55;;;;;;;8.70;3.30;;;30.50;27.00;;;;;;5032991;28;20036;-70
2022/05/15 06:08:21;;;;;;;6.97;3.53;;;31.20;26.20;;;;;;5032339;28;20025;-70
2022/05/15 06:10:46;;;;;;;10.48;3.80;;;31.70;25.70;;;;;;5032549;28;20036;-74
2022/05/15 06:13:12;;;;;;;10.00;4.28;;;31.00;26.00;;;;;;5032572;28;20025;-69
2022/05/15 06:15:38;;;;;;;9.32;4.38;;;28.00;29.30;;;;;;5032447;28;20479;-69
2022/05/15 06:18:05;;;;;;;10.93;4.30;;;26.40;31.90;;;;;;5032197;28;20033;-70
2022/05/15 06:20:31;;;;;;;8.98;4.20;;;26.20;32.40;;;;;;5032350;28;20030;-69
2022/05/15 06:22:57;;;;;;;11.23;4.40;;;25.90;33.00;;;;;;5032308;28;20498;-69
2022/05/15 06:25:22;;;;;;;10.55;4.90;;;27.30;31.40;;;;;;5032452;28;20084;-70
2022/05/15 06:27:49;;;;;;;8.20;4.07;;;27.90;30.30;;;;;;5031512;28;20521;-70
2022/05/15 06:32:52;;;;;;;9.40;3.80;;;29.40;28.10;;;;;;5025082;28;20061;-70
2022/05/15 06:35:17;;;;;;;11.45;3.95;;;29.90;27.30;;;;;;5030570;28;20024;-70
2022/05/15 06:37:43;;;;;;;8.90;4.20;;;28.40;29.00;;;;;;5035727;28;20031;-70
2022/05/15 06:40:11;;;;;;;16.20;4.50;;;27.40;30.40;;;;;;5033084;28;20022;-70
2022/05/15 06:42:36;;;;;;;10.43;4.80;;;27.30;31.10;;;;;;5012063;28;20022;-69
2022/05/15 06:45:02;;;;;;;10.98;4.43;;;28.30;29.80;;;;;;5009186;28;20018;-68
2022/05/15 06:47:28;;;;;;;12.35;4.78;;;27.70;30.00;;;;;;5010477;28;20029;-68
2022/05/15 06:49:53;;;;;;;11.27;4.80;;;25.80;32.50;;;;;;5012294;28;20456;-70
2022/05/15 06:52:19;;;;;;;11.18;4.13;;;25.10;34.70;;;;;;5011910;28;20025;-69
2022/05/15 06:54:45;;;;;;;11.98;4.15;;;26.00;33.30;;;;;;5011971;28;20080;-70
2022/05/15 06:57:28;;;;;;;12.38;4.40;;;26.50;32.60;;;;;;5011817;28;20053;-70
2022/05/15 07:00:11;;;;;;;10.07;4.00;;;27.10;31.40;;;;;;5011947;28;20064;-70
2022/05/15 07:02:40;;;;;;;10.80;4.13;;;26.30;32.30;;;;;;5010724;28;20030;-70
2022/05/15 07:05:08;;;;;;;8.43;3.90;;;27.40;31.40;;;;;;5011998;28;20014;-70
2022/05/15 07:07:33;;;;;;;12.48;4.80;;;27.10;31.00;;;;;;5010402;28;20026;-70
2022/05/15 07:09:59;;;;;;;10.20;4.30;;;25.70;33.50;;;;;;5011883;28;20554;-71
2022/05/15 07:12:25;;;;;;;11.88;4.03;;;24.50;35.60;;;;;;5010296;28;20476;-71
2022/05/15 07:14:51;;;;;;;12.40;4.82;;;24.60;36.40;;;;;;5011892;28;20044;-71
2022/05/15 07:17:16;;;;;;;10.13;4.28;;;24.90;35.10;;;;;;5011213;28;20038;-71
2022/05/15 07:19:42;;;;;;;11.35;4.57;;;24.40;36.00;;;;;;5010935;28;20061;-71
2022/05/15 07:22:10;;;;;;;16.58;5.00;;;24.30;36.40;;;;;;5010603;28;20022;-71
2022/05/15 07:24:38;;;;;;;11.85;4.22;;;24.20;36.30;;;;;;5010688;28;20026;-71
2022/05/15 07:27:08;;;;;;;10.93;4.15;;;24.90;35.90;;;;;;5010417;28;20022;-71
2022/05/15 07:29:36;;;;;;;10.23;4.30;;;24.80;36.80;;;;;;5010734;28;20133;-71
2022/05/15 07:32:03;;;;;;;7.93;3.88;;;27.00;33.70;;;;;;5010810;28;20518;-72
2022/05/15 07:34:28;;;;;;;12.10;3.65;;;29.20;30.00;;;;;;5011499;28;20413;-72
2022/05/15 07:36:54;;;;;;;11.05;4.07;;;31.00;27.50;;;;;;4997162;28;20035;-69
2022/05/15 07:39:20;;;;;;;9.02;3.63;;;30.70;27.00;;;;;;4991461;28;20058;-70
2022/05/15 07:41:47;;;;;;;9.82;3.55;;;30.10;28.30;;;;;;5006937;28;20030;-70
2022/05/15 07:44:13;;;;;;;11.90;3.70;;;31.40;27.00;;;;;;4991964;28;20102;-71
2022/05/15 07:46:40;;;;;;;9.15;4.07;;;31.50;26.10;;;;;;4992086;28;20062;-71
2022/05/15 07:49:06;;;;;;;12.52;3.60;;;32.40;25.30;;;;;;4995530;28;20036;-71
2022/05/15 07:51:32;;;;;;;14.73;4.53;;;32.40;24.40;;;;;;4995468;28;20052;-72
2022/05/15 07:53:58;;;;;;;8.90;4.07;;;30.20;27.40;;;;;;4995590;28;20041;-71
2022/05/15 07:56:24;;;;;;;12.18;4.35;;;30.00;26.80;;;;;;4995553;28;20400;-71
2022/05/15 07:58:49;;;;;;;12.20;4.13;;;27.40;30.30;;;;;;4995438;28;20066;-70
2022/05/15 08:01:15;;;;;;;10.70;3.80;;;27.20;31.10;;;;;;4995574;28;20026;-71
2022/05/15 08:03:44;;;;;;;12.30;3.85;;;28.30;29.30;;;;;;4995531;28;20014;-70
2022/05/15 08:08:57;;;;;;;7.90;3.47;;;27.90;31.10;;;;;;4995464;28;20088;-71
2022/05/15 08:11:26;;;;;;;12.57;3.60;;;29.70;28.30;;;;;;4995403;28;20037;-70
2022/05/15 08:13:52;;;;;;;10.20;3.30;;;30.90;27.00;;;;;;4994141;28;20080;-69
2022/05/15 08:16:18;;;;;;;8.80;3.80;;;30.00;26.20;;;;;;4995257;28;20026;-71
2022/05/15 08:24:11;;;;;;;12.77;2.92;;;28.00;29.90;;;;;;4995294;28;20109;-72
2022/05/15 08:26:37;;;;;;;8.30;2.60;;;29.10;27.60;;;;;;4995330;28;20113;-71
2022/05/15 08:29:03;;;;;;;7.05;2.88;;;29.50;26.90;;;;;;4994922;28;20110;-70
2022/05/15 08:31:29;;;;;;;11.05;3.55;;;30.40;26.10;;;;;;4995004;28;20064;-71
2022/05/15 08:33:55;;;;;;;8.10;3.30;;;31.00;25.70;;;;;;4995055;28;20492;-71
2022/05/15 08:36:21;;;;;;;8.65;2.90;;;31.60;24.50;;;;;;4995139;28;20030;-70
2022/05/15 08:38:46;;;;;;;9.73;3.40;;;31.80;23.60;;;;;;4993930;28;20523;-70
2022/05/15 08:41:30;;;;;;;12.40;2.92;;;28.90;25.90;;;;;;4992635;28;20443;-71
2022/05/15 08:44:12;;;;;;;9.98;3.38;;;27.30;28.80;;;;;;4993903;28;20015;-71
2022/05/15 08:46:49;;;;;;;8.90;3.00;;;26.90;29.10;;;;;;4995018;28;20072;-71
2022/05/15 08:49:29;;;;;;;11.32;2.83;;;27.00;30.50;;;;;;4994126;28;20027;-71
2022/05/15 08:52:22;;;;;;;11.73;3.70;;;26.20;30.30;;;;;;4994616;28;20076;-71
2022/05/15 08:55:04;;;;;;;12.45;4.18;;;26.80;31.50;;;;;;4994666;28;20546;-70
2022/05/15 08:57:55;;;;;;;11.10;3.67;;;28.50;28.80;;;;;;4992880;28;20026;-70
2022/05/15 09:00:33;;;;;;;10.02;3.20;;;28.00;28.70;;;;;;4993714;28;20034;-71
2022/05/15 09:03:16;;;;;;;12.23;3.60;;;28.60;28.00;;;;;;4992540;28;20121;-71
2022/05/15 09:06:00;;;;;;;14.98;3.60;;;28.80;27.60;;;;;;4993084;28;20018;-71
2022/05/15 09:09:03;;;;;;;16.65;4.68;;;27.70;28.80;;;;;;4992976;28;20022;-71
2022/05/15 09:12:01;;;;;;;12.32;3.45;;;27.80;30.60;;;;;;4994324;28;20400;-71
2022/05/15 09:14:54;;;;;;;16.15;6.43;;;27.20;29.80;;;;;;4995634;28;20145;-72
2022/05/15 09:18:00;;;;;;;14.30;5.45;;;28.20;29.90;;;;;;5013519;28;20078;-72
2022/05/15 09:20:26;;;;;;;14.15;5.75;;;29.10;28.40;;;;;;4997738;28;20326;-72
2022/05/15 09:23:04;;;;;;;17.70;6.05;;;29.60;27.70;;;;;;4994370;28;20457;-72
2022/05/15 09:25:34;;;;;;;12.10;3.63;;;28.00;29.30;;;;;;4993898;28;20054;-71
2022/05/15 09:28:01;;;;;;;12.25;3.97;;;26.00;31.80;;;;;;4993950;28;20037;-70
2022/05/15 09:30:45;;;;;;;12.88;4.03;;;26.00;33.80;;;;;;4993903;28;20374;-70
2022/05/15 09:33:34;;;;;;;8.90;3.35;;;26.10;32.00;;;;;;4994125;28;20080;-70
2022/05/15 09:36:22;;;;;;;13.18;4.05;;;26.00;32.10;;;;;;5009148;28;20069;-70
2022/05/15 09:38:50;;;;;;;11.55;3.78;;;26.50;31.90;;;;;;4993675;28;20034;-71
2022/05/15 09:44:34;;;;;;;11.85;3.63;;;26.40;32.20;;;;;;4994061;28;20024;-71
2022/05/15 09:47:14;;;;;;;14.93;3.88;;;26.00;32.30;;;;;;4993527;28;20039;-70
2022/05/15 09:49:40;;;;;;;12.73;3.40;;;25.20;33.50;;;;;;4993695;28;20030;-71
2022/05/15 09:52:19;;;;;;;12.30;3.92;;;25.90;33.40;;;;;;4993551;28;20484;-70
2022/05/15 09:54:49;;;;;;;13.00;4.45;;;26.70;32.00;;;;;;4992093;28;20037;-70
2022/05/15 09:57:22;;;;;;;13.57;3.78;;;25.70;31.60;;;;;;4993156;28;20477;-70
2022/05/15 09:59:55;;;;;;;15.60;4.22;;;24.20;34.30;;;;;;4993323;28;20489;-69
2022/05/15 10:02:24;;;;;;;14.57;3.75;;;23.40;35.80;;;;;;4993492;28;20034;-70
2022/05/15 10:04:52;;;;;;;10.70;3.90;;;24.00;36.50;;;;;;4993574;28;20461;-69
2022/05/15 10:08:08;;;;;;;8.73;3.58;;;24.90;35.20;;;;;;4991863;28;20089;-71
2022/05/15 10:10:43;;;;;;;12.18;3.95;;;25.60;33.10;;;;;;4991217;28;20038;-70
2022/05/15 10:13:32;;;;;;;11.43;3.30;;;25.80;33.00;;;;;;4993179;28;20029;-70
2022/05/15 10:16:05;;;;;;;9.00;3.47;;;26.00;33.30;;;;;;4993266;28;20156;-71
2022/05/15 10:18:43;;;;;;;10.50;3.45;;;26.00;31.80;;;;;;4999508;28;20021;-69
2022/05/15 10:21:09;;;;;;;12.77;4.68;;;25.00;33.80;;;;;;5006663;28;20045;-71
2022/05/15 10:23:48;;;;;;;12.07;3.60;;;24.70;34.60;;;;;;5011966;28;20034;-70
2022/05/15 10:26:26;;;;;;;9.90;3.35;;;23.50;35.80;;;;;;4996480;28;20053;-70
2022/05/15 10:29:15;;;;;;;10.93;3.63;;;23.50;36.70;;;;;;5007136;28;20018;-71
2022/05/15 10:31:48;;;;;;;12.43;3.72;;;23.50;36.70;;;;;;5012074;28;20057;-71
2022/05/15 10:34:18;;;;;;;6.65;3.17;;;23.70;36.40;;;;;;5012131;28;20476;-69
2022/05/15 10:36:57;;;;;;;12.45;3.72;;;23.20;36.30;;;;;;5012288;28;20053;-71
2022/05/15 10:39:55;;;;;;;10.50;4.20;;;22.90;36.40;;;;;;4992612;28;20018;-69
2022/05/15 10:42:47;;;;;;;14.52;4.70;;;22.40;37.80;;;;;;4992821;28;20036;-71
2022/05/15 10:45:21;;;;;;;10.32;3.50;;;21.80;38.90;;;;;;5008447;28;20415;-70
2022/05/15 10:47:55;;;;;;;13.02;3.78;;;21.70;38.70;;;;;;5011850;28;20026;-70
2022/05/15 10:50:43;;;;;;;12.63;3.72;;;21.50;38.80;;;;;;5011978;28;20017;-71
2022/05/15 10:59:02;;;;;;;13.40;3.20;;;21.50;38.70;;;;;;5011708;28;20542;-70
2022/05/15 11:01:44;;;;;;;10.00;4.28;;;21.60;39.60;;;;;;5011678;28;20025;-70
2022/05/15 11:04:34;;;;;;;8.52;3.30;;;21.60;39.80;;;;;;5011824;28;20018;-70
2022/05/15 11:07:22;;;;;;;10.18;3.13;;;21.70;38.90;;;;;;5011773;28;20423;-69
2022/05/15 11:09:53;;;;;;;13.68;3.95;;;21.50;39.00;;;;;;5011961;28;20029;-70
2022/05/15 11:12:22;;;;;;;13.15;3.95;;;21.50;39.80;;;;;;5010498;28;20049;-70
2022/05/15 11:15:07;;;;;;;13.73;3.85;;;21.40;41.10;;;;;;5011659;28;20030;-71
2022/05/15 11:17:47;;;;;;;8.57;3.33;;;21.50;40.30;;;;;;5010449;28;20096;-70
2022/05/15 11:20:21;;;;;;;11.27;3.53;;;21.70;40.30;;;;;;5010199;28;20023;-71
2022/05/15 11:22:50;;;;;;;9.85;3.20;;;22.10;39.90;;;;;;5013717;28;20061;-70
2022/05/15 11:25:28;;;;;;;8.57;3.10;;;22.40;38.90;;;;;;5014580;28;20028;-71
2022/05/15 11:27:58;;;;;;;9.73;3.10;;;22.50;37.90;;;;;;5015420;28;20084;-70
2022/05/15 11:30:47;;;;;;;15.68;4.00;;;22.40;37.70;;;;;;4997790;28;20030;-70
2022/05/15 11:33:40;;;;;;;16.38;3.47;;;22.50;38.30;;;;;;4995900;28;20404;-69
2022/05/15 11:36:11;;;;;;;8.18;3.45;;;22.60;38.00;;;;;;4996198;28;20042;-70
2022/05/15 11:39:15;;;;;;;8.07;2.90;;;22.80;37.10;;;;;;4995522;28;20132;-70
2022/05/15 11:41:43;;;;;;;12.00;3.60;;;22.40;36.80;;;;;;4965448;28;20089;-70
2022/05/15 11:44:40;;;;;;;14.63;3.78;;;21.80;38.30;;;;;;4995782;28;20045;-70
2022/05/15 11:47:32;;;;;;;11.38;3.70;;;22.00;37.70;;;;;;4995780;28;20050;-68
2022/05/15 11:50:10;;;;;;;10.10;3.63;;;22.00;37.70;;;;;;4989423;28;20046;-70
2022/05/15 11:52:43;;;;;;;9.68;3.28;;;22.20;37.60;;;;;;4995842;28;20023;-70
2022/05/15 11:55:36;;;;;;;10.30;3.30;;;22.50;37.90;;;;;;4995764;28;20022;-70
2022/05/15 11:58:20;;;;;;;10.02;3.00;;;22.70;37.30;;;;;;4995138;28;20029;-70
2022/05/15 12:01:07;;;;;;;12.35;3.65;;;22.80;35.80;;;;;;5003221;28;20022;-70
2022/05/15 12:03:39;;;;;;;11.07;3.70;;;22.10;36.30;;;;;;5008979;28;20022;-71
2022/05/15 12:06:15;;;;;;;11.40;3.55;;;21.50;37.10;;;;;;5013642;28;20049;-70
2022/05/15 12:08:42;;;;;;;11.15;3.40;;;21.50;37.40;;;;;;5013380;28;20034;-70
2022/05/15 12:11:28;;;;;;;10.63;3.20;;;21.20;38.30;;;;;;5015158;28;20080;-70
2022/05/15 12:13:55;;;;;;;13.50;3.67;;;21.10;38.10;;;;;;5014811;28;20101;-71
2022/05/15 12:16:29;;;;;;;14.52;3.55;;;21.10;37.80;;;;;;5013622;28;20029;-70
2022/05/15 12:18:59;;;;;;;11.18;3.20;;;21.40;38.00;;;;;;5010799;28;20476;-70
2022/05/15 12:21:35;;;;;;;8.23;2.80;;;21.50;38.90;;;;;;5010222;28;20038;-71
2022/05/15 12:27:00;;;;;;;15.68;4.40;;;22.00;38.60;;;;;;4995395;28;20084;-71
2022/05/15 12:30:00;;;;;;;10.02;4.07;;;22.10;38.50;;;;;;5005177;28;20492;-70
2022/05/15 12:32:47;;;;;;;14.02;3.20;;;22.40;38.20;;;;;;5013784;23;20092;-68
2022/05/15 12:35:25;;;;;;;9.75;3.38;;;22.40;36.60;;;;;;4994952;28;20169;-68
2022/05/15 12:37:54;;;;;;;11.23;3.63;;;22.20;36.50;;;;;;4995032;28;20033;-68
2022/05/15 12:40:30;;;;;;;8.20;2.70;;;21.70;37.50;;;;;;4977583;28;20246;-69
2022/05/15 12:42:57;;;;;;;14.27;3.17;;;21.90;38.20;;;;;;4995300;28;20094;-70
2022/05/15 12:45:23;;;;;;;10.15;3.97;;;22.10;38.00;;;;;;4995190;28;20106;-69
2022/05/15 12:48:02;;;;;;;7.97;3.28;;;22.00;38.00;;;;;;4994950;28;20105;-69
2022/05/15 12:50:28;;;;;;;11.07;3.35;;;21.40;37.70;;;;;;4995075;28;20033;-70
2022/05/15 12:53:01;;;;;;;8.73;2.92;;;21.50;39.00;;;;;;4994955;28;20388;-69
2022/05/15 12:55:31;;;;;;;11.05;3.45;;;21.90;38.40;;;;;;4995515;28;20023;-68
2022/05/15 12:57:58;;;;;;;7.85;3.13;;;22.10;36.60;;;;;;4994830;28;20027;-69
2022/05/15 13:00:32;;;;;;;4.93;2.65;;;22.20;37.10;;;;;;4995017;28;20066;-69
2022/05/15 13:03:00;;;;;;;12.23;3.00;;;22.40;36.40;;;;;;4994697;28;20041;-69
2022/05/15 13:05:37;;;;;;;7.10;2.53;;;22.50;36.20;;;;;;4994391;28;20037;-70
2022/05/15 13:08:08;;;;;;;11.25;3.20;;;22.30;35.20;;;;;;4994400;28;20101;-69
2022/05/15 13:10:41;;;;;;;9.30;3.47;;;22.00;36.60;;;;;;4994494;28;20022;-68
2022/05/15 13:13:18;;;;;;;8.55;3.03;;;21.90;36.80;;;;;;4994511;28;20057;-68
2022/05/15 13:15:48;;;;;;;10.45;3.03;;;22.00;37.20;;;;;;4993963;28;20034;-68
2022/05/15 13:18:14;;;;;;;8.15;2.47;;;21.90;36.20;;;;;;4993896;28;20081;-69
2022/05/15 13:20:44;;;;;;;9.80;3.15;;;21.80;36.20;;;;;;4993382;28;20113;-69
2022/05/15 13:23:12;;;;;;;6.30;2.40;;;21.80;36.80;;;;;;4992357;28;20045;-68
2022/05/15 13:25:40;;;;;;;6.55;2.78;;;22.00;36.70;;;;;;4992261;28;20033;-68
2022/05/15 13:28:08;;;;;;;10.40;3.05;;;22.00;37.10;;;;;;4990181;28;20018;-68
2022/05/15 13:30:35;;;;;;;8.05;2.47;;;22.10;36.70;;;;;;4997210;28;20023;-69
2022/05/15 13:33:04;;;;;;;7.38;2.75;;;22.10;36.20;;;;;;4991953;28;20027;-69
2022/05/15 13:35:46;;;;;;;6.15;2.63;;;22.20;36.70;;;;;;4992241;28;20089;-68
2022/05/15 13:38:17;;;;;;;13.90;3.15;;;22.10;35.70;;;;;;4993715;28;20068;-68